createdAt,value
2022-09-23T00:01:07.527Z,4.64
2022-09-23T00:03:35.313Z,4.51
2022-09-23T00:06:04.807Z,4.54
2022-09-23T00:08:31.852Z,4.52
2022-09-23T00:11:04.699Z,4.60
2022-09-23T00:13:31.351Z,4.60
2022-09-23T00:15:57.842Z,4.63
2022-09-23T00:18:24.379Z,4.66
2022-09-23T00:20:51.171Z,4.63
2022-09-23T00:23:17.647Z,4.68
2022-09-23T00:25:44.169Z,4.73
2022-09-23T00:28:10.634Z,4.80
2022-09-23T00:30:37.175Z,4.82
2022-09-23T00:33:03.721Z,4.80
2022-09-23T00:35:30.230Z,4.82
2022-09-23T00:37:56.698Z,4.76
2022-09-23T00:40:23.283Z,4.72
2022-09-23T00:42:52.041Z,4.68
2022-09-23T00:45:19.534Z,4.66
2022-09-23T00:47:48.206Z,4.61
2022-09-23T00:50:24.719Z,4.51
2022-09-23T00:52:54.729Z,4.40
2022-09-23T00:55:26.433Z,4.37
2022-09-23T00:57:56.707Z,4.37
2022-09-23T01:00:23.728Z,4.39
2022-09-23T01:02:51.587Z,4.36
2022-09-23T01:05:18.916Z,4.33
2022-09-23T01:07:46.234Z,4.31
2022-09-23T01:10:15.611Z,4.29
2022-09-23T01:13:06.633Z,4.25
2022-09-23T01:15:48.482Z,4.24
2022-09-23T01:18:21.199Z,4.20
2022-09-23T01:20:53.575Z,4.18
2022-09-23T01:23:29.007Z,4.14
2022-09-23T01:26:14.296Z,4.11
2022-09-23T01:28:58.090Z,4.08
2022-09-23T01:31:30.637Z,4.07
2022-09-23T01:34:20.031Z,4.04
2022-09-23T01:36:54.500Z,4.02
2022-09-23T01:39:34.532Z,3.99
2022-09-23T01:42:09.959Z,3.95
2022-09-23T01:44:57.906Z,3.97
2022-09-23T01:47:33.338Z,3.94
2022-09-23T01:50:25.271Z,3.89
2022-09-23T01:52:55.009Z,3.86
2022-09-23T01:55:33.782Z,3.82
2022-09-23T01:58:08.426Z,3.73
2022-09-23T02:00:37.625Z,3.65
2022-09-23T02:03:13.766Z,3.62
2022-09-23T02:05:45.681Z,3.61
2022-09-23T02:08:19.531Z,3.60
2022-09-23T02:11:00.595Z,3.56
2022-09-23T02:13:36.815Z,3.54
2022-09-23T02:16:15.580Z,3.54
2022-09-23T02:18:51.256Z,3.58
2022-09-23T02:21:20.070Z,3.60
2022-09-23T02:23:51.389Z,3.57
2022-09-23T02:26:20.523Z,3.56
2022-09-23T02:29:49.374Z,3.53
2022-09-23T02:32:26.574Z,3.57
2022-09-23T02:34:59.090Z,3.62
2022-09-23T02:37:44.240Z,3.61
2022-09-23T02:40:13.456Z,3.61
2022-09-23T02:43:06.245Z,3.57
2022-09-23T02:45:34.061Z,3.53
2022-09-23T02:48:16.302Z,3.54
2022-09-23T02:50:42.848Z,3.58
2022-09-23T02:53:09.769Z,3.53
2022-09-23T02:55:36.307Z,3.51
2022-09-23T02:58:05.465Z,3.51
2022-09-23T03:00:37.921Z,3.50
2022-09-23T03:03:15.711Z,3.51
2022-09-23T03:05:53.236Z,3.54
2022-09-23T03:08:38.778Z,3.58
2022-09-23T03:11:11.720Z,3.57
2022-09-23T03:13:47.747Z,3.59
2022-09-23T03:16:39.748Z,3.62
2022-09-23T03:19:21.500Z,3.67
2022-09-23T03:22:01.111Z,3.68
2022-09-23T03:24:35.009Z,3.70
2022-09-23T03:27:05.339Z,3.70
2022-09-23T03:29:34.532Z,3.68
2022-09-23T03:32:01.337Z,3.72
2022-09-23T03:34:30.810Z,3.75
2022-09-23T03:37:07.538Z,3.75
2022-09-23T03:39:44.417Z,3.78
2022-09-23T03:42:22.383Z,3.82
2022-09-23T03:44:53.989Z,3.85
2022-09-23T03:47:21.441Z,3.83
2022-09-23T03:49:49.743Z,3.83
2022-09-23T03:52:17.813Z,3.81
2022-09-23T03:54:44.444Z,3.71
2022-09-23T03:57:12.210Z,3.65
2022-09-23T03:59:39.449Z,3.62
2022-09-23T04:02:07.879Z,3.64
2022-09-23T04:04:36.775Z,3.66
2022-09-23T04:07:03.438Z,3.66
2022-09-23T04:09:30.771Z,3.61
2022-09-23T04:11:57.317Z,3.63
2022-09-23T04:14:25.275Z,3.61
2022-09-23T04:16:52.093Z,3.58
2022-09-23T04:19:18.915Z,3.53
2022-09-23T04:21:45.767Z,3.52
2022-09-23T04:24:12.704Z,3.53
2022-09-23T04:26:39.682Z,3.45
2022-09-23T04:29:06.793Z,3.43
2022-09-23T04:31:34.567Z,3.41
2022-09-23T04:34:01.252Z,3.36
2022-09-23T04:36:29.163Z,3.35
2022-09-23T04:38:56.366Z,3.35
2022-09-23T04:41:23.022Z,3.35
2022-09-23T04:43:49.616Z,3.32
2022-09-23T04:46:16.690Z,3.33
2022-09-23T04:48:43.428Z,3.30
2022-09-23T04:51:13.153Z,3.27
2022-09-23T04:53:42.406Z,3.26
2022-09-23T04:56:19.324Z,3.15
2022-09-23T04:58:46.118Z,3.12
2022-09-23T05:01:25.248Z,3.12
2022-09-23T05:03:54.066Z,3.14
2022-09-23T05:06:21.603Z,3.19
2022-09-23T05:08:58.729Z,3.25
2022-09-23T05:11:26.055Z,3.27
2022-09-23T05:13:54.187Z,3.32
2022-09-23T05:16:23.441Z,3.39
2022-09-23T05:18:51.183Z,3.45
2022-09-23T05:21:20.676Z,3.55
2022-09-23T05:24:00.874Z,3.62
2022-09-23T05:26:30.687Z,3.71
2022-09-23T05:28:57.251Z,3.80
2022-09-23T05:31:26.012Z,3.88
2022-09-23T05:33:57.235Z,3.96
2022-09-23T05:36:25.385Z,4.04
2022-09-23T05:38:53.387Z,4.12
2022-09-23T05:41:23.127Z,4.20
2022-09-23T05:43:54.084Z,4.28
2022-09-23T05:46:28.346Z,4.35
2022-09-23T05:49:01.190Z,4.45
2022-09-23T05:51:31.104Z,4.56
2022-09-23T05:53:59.139Z,4.63
2022-09-23T05:56:27.811Z,4.73
2022-09-23T05:58:56.848Z,4.81
2022-09-23T06:01:26.001Z,4.90
2022-09-23T06:03:54.354Z,4.97
2022-09-23T06:06:27.460Z,5.05
2022-09-23T06:08:54.043Z,5.16
2022-09-23T06:11:21.511Z,5.27
2022-09-23T06:13:49.374Z,5.37
2022-09-23T06:16:16.439Z,5.49
2022-09-23T06:18:44.726Z,5.62
2022-09-23T06:21:15.887Z,5.71
2022-09-23T06:23:43.902Z,5.81
2022-09-23T06:26:13.173Z,5.94
2022-09-23T06:28:41.382Z,6.07
2022-09-23T06:31:13.626Z,6.21
2022-09-23T06:33:41.095Z,6.31
2022-09-23T06:36:08.170Z,6.43
2022-09-23T06:38:35.146Z,6.61
2022-09-23T06:41:04.726Z,6.71
2022-09-23T06:43:31.426Z,6.82
2022-09-23T06:46:03.717Z,6.94
2022-09-23T06:48:31.610Z,7.09
2022-09-23T06:51:04.035Z,7.21
2022-09-23T06:53:34.146Z,7.32
2022-09-23T06:56:11.357Z,7.47
2022-09-23T06:58:40.032Z,7.60
2022-09-23T07:01:09.027Z,7.74
2022-09-23T07:03:36.485Z,7.85
2022-09-23T07:06:04.255Z,8.01
2022-09-23T07:08:33.663Z,8.18
2022-09-23T07:11:02.873Z,8.33
2022-09-23T07:13:30.360Z,8.53
2022-09-23T07:16:02.055Z,8.77
2022-09-23T07:18:36.683Z,8.98
2022-09-23T07:21:15.717Z,9.15
2022-09-23T07:23:43.678Z,9.38
2022-09-23T07:26:10.479Z,9.56
2022-09-23T07:28:37.220Z,9.72
2022-09-23T07:31:09.780Z,9.87
2022-09-23T07:33:38.163Z,10.04
2022-09-23T07:36:10.882Z,10.25
2022-09-23T07:38:42.800Z,10.41
2022-09-23T07:41:13.295Z,10.53
2022-09-23T07:43:40.847Z,10.69
2022-09-23T07:46:11.217Z,10.79
2022-09-23T07:48:38.647Z,10.93
2022-09-23T07:51:20.299Z,11.00
2022-09-23T07:53:48.436Z,11.10
2022-09-23T07:56:15.485Z,11.21
2022-09-23T07:58:42.027Z,11.44
2022-09-23T08:01:10.473Z,11.52
2022-09-23T08:03:37.984Z,11.61
2022-09-23T08:06:13.947Z,11.85
2022-09-23T08:08:43.761Z,11.91
2022-09-23T08:11:12.258Z,12.14
2022-09-23T08:13:38.893Z,12.21
2022-09-23T08:16:05.747Z,12.23
2022-09-23T08:18:32.833Z,12.36
2022-09-23T08:20:59.482Z,12.51
2022-09-23T08:23:26.154Z,12.61
2022-09-23T08:26:00.802Z,12.78
2022-09-23T08:28:27.993Z,12.90
2022-09-23T08:30:55.219Z,13.02
2022-09-23T08:33:23.651Z,13.15
2022-09-23T08:35:51.108Z,13.25
2022-09-23T08:38:18.016Z,13.33
2022-09-23T08:40:49.018Z,13.39
2022-09-23T08:43:26.865Z,13.51
2022-09-23T08:45:55.452Z,13.59
2022-09-23T08:48:30.612Z,13.83
2022-09-23T08:51:08.642Z,13.92
2022-09-23T08:53:36.843Z,14.11
2022-09-23T08:56:07.415Z,14.18
2022-09-23T08:58:59.515Z,14.28
2022-09-23T09:01:31.963Z,14.40
2022-09-23T09:04:01.874Z,14.57
2022-09-23T09:06:51.739Z,14.72
2022-09-23T09:09:26.526Z,14.92
2022-09-23T09:12:03.159Z,15.12
2022-09-23T09:15:00.630Z,15.25
2022-09-23T09:17:39.817Z,15.42
2022-09-23T09:20:17.251Z,15.46
2022-09-23T09:22:52.982Z,15.65
2022-09-23T09:25:36.429Z,15.84
2022-09-23T09:28:15.970Z,16.02
2022-09-23T09:30:48.370Z,16.09
2022-09-23T09:33:19.066Z,16.18
2022-09-23T09:35:45.851Z,16.35
2022-09-23T09:38:13.199Z,16.48
2022-09-23T09:40:46.995Z,16.67
2022-09-23T09:43:23.595Z,16.74
2022-09-23T09:45:58.211Z,17.08
2022-09-23T09:48:38.355Z,17.28
2022-09-23T09:51:22.216Z,17.42
2022-09-23T09:53:52.085Z,17.75
2022-09-23T09:56:26.806Z,18.01
2022-09-23T09:59:08.029Z,18.20
2022-09-23T10:01:35.419Z,18.19
2022-09-23T10:04:05.776Z,18.07
2022-09-23T10:06:36.063Z,17.86
2022-09-23T10:09:17.005Z,17.85
2022-09-23T10:12:03.076Z,17.88
2022-09-23T10:14:30.154Z,17.77
2022-09-23T10:17:05.854Z,17.92
2022-09-23T10:19:36.024Z,18.15
2022-09-23T10:22:07.523Z,18.37
2022-09-23T10:24:37.600Z,18.60
2022-09-23T10:27:11.836Z,18.73
2022-09-23T10:29:38.783Z,18.78
2022-09-23T10:32:25.871Z,18.86
2022-09-23T10:35:03.933Z,18.67
2022-09-23T10:37:35.213Z,18.68
2022-09-23T10:40:32.209Z,18.65
2022-09-23T10:43:35.657Z,18.54
2022-09-23T10:46:26.639Z,18.28
2022-09-23T10:49:31.373Z,18.19
2022-09-23T10:52:22.616Z,18.38
2022-09-23T10:55:19.920Z,18.39
2022-09-23T10:57:46.437Z,18.31
2022-09-23T11:00:46.341Z,18.25
2022-09-23T11:03:34.714Z,18.34
2022-09-23T11:06:16.812Z,18.20
2022-09-23T11:09:14.188Z,18.15
2022-09-23T11:11:40.609Z,18.10
2022-09-23T11:14:30.674Z,17.78
2022-09-23T11:16:58.159Z,17.65
2022-09-23T11:19:44.732Z,17.58
2022-09-23T11:22:36.190Z,17.75
2022-09-23T11:25:24.599Z,17.80
2022-09-23T11:27:51.046Z,17.87
2022-09-23T11:30:21.035Z,17.95
2022-09-23T11:33:15.869Z,18.08
2022-09-23T11:35:55.251Z,18.08
2022-09-23T11:38:28.123Z,18.30
2022-09-23T11:41:12.306Z,18.44
2022-09-23T11:43:41.620Z,18.25
2022-09-23T11:46:35.950Z,17.98
2022-09-23T11:49:15.990Z,17.85
2022-09-23T11:52:06.799Z,17.73
2022-09-23T11:54:54.647Z,17.73
2022-09-23T11:57:49.160Z,18.28
2022-09-23T12:00:15.962Z,18.58
2022-09-23T12:03:05.598Z,19.97
2022-09-23T12:05:40.172Z,21.23
2022-09-23T12:08:12.595Z,21.57
2022-09-23T12:10:58.038Z,21.28
2022-09-23T12:13:56.291Z,21.12
2022-09-23T12:16:44.550Z,21.08
2022-09-23T12:19:18.902Z,20.89
2022-09-23T12:21:56.718Z,20.71
2022-09-23T12:24:46.218Z,20.18
2022-09-23T12:27:24.150Z,20.26
2022-09-23T12:29:59.345Z,20.58
2022-09-23T12:32:26.915Z,20.52
2022-09-23T12:34:54.432Z,20.21
2022-09-23T12:37:34.835Z,20.85
2022-09-23T12:40:19.488Z,21.84
2022-09-23T12:42:49.433Z,22.71
2022-09-23T12:45:34.826Z,23.92
2022-09-23T12:48:03.722Z,25.07
2022-09-23T12:51:12.722Z,25.59
2022-09-23T12:53:50.679Z,25.75
2022-09-23T12:56:20.499Z,25.12
2022-09-23T12:58:46.979Z,24.54
2022-09-23T13:01:23.209Z,24.29
2022-09-23T13:04:11.458Z,24.07
2022-09-23T13:06:56.590Z,23.39
2022-09-23T13:09:27.086Z,22.85
2022-09-23T13:11:59.851Z,23.03
2022-09-23T13:14:28.581Z,23.66
2022-09-23T13:16:58.403Z,24.26
2022-09-23T13:19:27.917Z,23.80
2022-09-23T13:21:54.430Z,23.04
2022-09-23T13:24:39.742Z,22.46
2022-09-23T13:27:20.786Z,21.86
2022-09-23T13:29:59.288Z,21.46
2022-09-23T13:32:36.953Z,21.18
2022-09-23T13:35:15.704Z,21.03
2022-09-23T13:37:51.003Z,20.57
2022-09-23T13:40:27.500Z,20.19
2022-09-23T13:43:22.052Z,20.37
2022-09-23T13:45:50.280Z,20.38
2022-09-23T13:48:17.139Z,20.53
2022-09-23T13:50:48.914Z,20.36
2022-09-23T13:53:34.055Z,20.44
2022-09-23T13:56:21.975Z,20.57
2022-09-23T13:58:48.874Z,20.22
2022-09-23T14:01:29.367Z,20.01
2022-09-23T14:03:55.877Z,19.77
2022-09-23T14:06:22.431Z,19.63
2022-09-23T14:08:50.731Z,19.67
2022-09-23T14:11:38.928Z,19.96
2022-09-23T14:14:07.523Z,19.74
2022-09-23T14:16:38.920Z,19.54
2022-09-23T14:19:07.920Z,19.58
2022-09-23T14:21:37.032Z,19.44
2022-09-23T14:24:19.576Z,19.46
2022-09-23T14:26:58.618Z,19.44
2022-09-23T14:29:34.004Z,19.53
2022-09-23T14:32:21.863Z,19.75
2022-09-23T14:35:01.351Z,20.08
2022-09-23T14:37:52.663Z,20.25
2022-09-23T14:40:20.677Z,20.53
2022-09-23T14:42:56.474Z,21.16
2022-09-23T14:45:26.441Z,21.62
2022-09-23T14:47:58.531Z,21.91
2022-09-23T14:50:43.617Z,22.36
2022-09-23T14:53:19.453Z,23.10
2022-09-23T14:55:48.534Z,23.62
2022-09-23T14:58:17.058Z,23.33
2022-09-23T15:00:55.113Z,22.85
2022-09-23T15:03:22.290Z,22.13
2022-09-23T15:05:51.830Z,21.63
2022-09-23T15:08:21.614Z,21.08
2022-09-23T15:10:49.095Z,21.03
2022-09-23T15:13:19.894Z,21.24
2022-09-23T15:15:47.195Z,21.32
2022-09-23T15:18:23.792Z,21.85
2022-09-23T15:20:55.418Z,22.10
2022-09-23T15:23:45.133Z,22.42
2022-09-23T15:26:23.820Z,22.38
2022-09-23T15:28:55.874Z,22.21
2022-09-23T15:31:27.427Z,22.71
2022-09-23T15:33:53.955Z,22.69
2022-09-23T15:36:25.858Z,23.35
2022-09-23T15:38:52.609Z,23.79
2022-09-23T15:41:19.441Z,23.85
2022-09-23T15:43:46.986Z,24.06
2022-09-23T15:46:26.372Z,24.16
2022-09-23T15:49:00.667Z,23.64
2022-09-23T15:51:27.880Z,23.51
2022-09-23T15:53:55.260Z,23.49
2022-09-23T15:56:23.076Z,22.65
2022-09-23T15:58:49.744Z,22.21
2022-09-23T16:01:27.655Z,21.42
2022-09-23T16:03:55.693Z,20.63
2022-09-23T16:06:24.317Z,20.02
2022-09-23T16:08:52.203Z,19.51
2022-09-23T16:11:22.932Z,19.12
2022-09-23T16:13:49.804Z,18.89
2022-09-23T16:16:17.135Z,18.77
2022-09-23T16:18:43.946Z,18.36
2022-09-23T16:21:16.271Z,18.07
2022-09-23T16:23:47.638Z,17.84
2022-09-23T16:26:25.629Z,17.49
2022-09-23T16:28:55.272Z,17.32
2022-09-23T16:31:25.238Z,16.94
2022-09-23T16:33:53.535Z,16.70
2022-09-23T16:36:28.929Z,16.46
2022-09-23T16:38:55.871Z,16.40
2022-09-23T16:41:23.679Z,16.11
2022-09-23T16:43:53.631Z,15.75
2022-09-23T16:46:20.886Z,15.53
2022-09-23T16:48:52.297Z,15.48
2022-09-23T16:51:21.481Z,15.24
2022-09-23T16:53:49.477Z,15.02
2022-09-23T16:56:20.068Z,14.89
2022-09-23T16:58:50.909Z,14.66
2022-09-23T17:01:42.703Z,14.41
2022-09-23T17:04:10.563Z,14.21
2022-09-23T17:06:48.299Z,14.00
2022-09-23T17:09:15.021Z,13.86
2022-09-23T17:11:49.037Z,13.75
2022-09-23T17:14:16.227Z,13.55
2022-09-23T17:16:43.021Z,13.37
2022-09-23T17:19:11.530Z,13.26
2022-09-23T17:21:38.722Z,13.10
2022-09-23T17:24:06.144Z,13.06
2022-09-23T17:26:33.215Z,12.96
2022-09-23T17:29:00.969Z,12.82
2022-09-23T17:31:28.066Z,12.63
2022-09-23T17:33:54.636Z,12.48
2022-09-23T17:36:21.354Z,12.42
2022-09-23T17:38:49.255Z,12.27
2022-09-23T17:41:17.209Z,12.10
2022-09-23T17:43:44.412Z,12.00
2022-09-23T17:46:18.146Z,11.91
2022-09-23T17:48:45.766Z,11.59
2022-09-23T17:51:18.819Z,11.46
2022-09-23T17:53:47.079Z,11.33
2022-09-23T17:56:24.992Z,11.30
2022-09-23T17:58:52.719Z,11.26
2022-09-23T18:01:25.232Z,11.08
2022-09-23T18:03:59.657Z,10.93
2022-09-23T18:06:28.804Z,10.95
2022-09-23T18:08:56.126Z,10.87
2022-09-23T18:11:23.947Z,10.70
2022-09-23T18:14:02.928Z,10.59
2022-09-23T18:16:34.414Z,10.42
2022-09-23T18:19:02.719Z,10.35
2022-09-23T18:21:35.235Z,10.32
2022-09-23T18:24:21.663Z,10.29
2022-09-23T18:26:50.271Z,10.14
2022-09-23T18:29:16.955Z,10.10
2022-09-23T18:31:45.119Z,9.99
2022-09-23T18:34:14.143Z,9.85
2022-09-23T18:36:40.810Z,9.77
2022-09-23T18:39:07.670Z,9.70
2022-09-23T18:41:35.308Z,9.63
2022-09-23T18:44:02.591Z,9.54
2022-09-23T18:46:30.614Z,9.48
2022-09-23T18:49:16.662Z,9.34
2022-09-23T18:51:55.781Z,9.27
2022-09-23T18:54:28.004Z,9.31
2022-09-23T18:56:55.688Z,9.36
2022-09-23T18:59:25.891Z,9.31
2022-09-23T19:01:55.481Z,9.20
2022-09-23T19:04:23.810Z,9.10
2022-09-23T19:06:50.615Z,8.95
2022-09-23T19:09:18.274Z,8.88
2022-09-23T19:11:45.216Z,8.88
2022-09-23T19:14:12.880Z,8.85
2022-09-23T19:16:40.598Z,8.86
2022-09-23T19:19:08.065Z,8.79
2022-09-23T19:21:35.077Z,8.69
2022-09-23T19:24:04.643Z,8.78
2022-09-23T19:26:40.282Z,8.84
2022-09-23T19:29:08.939Z,8.76
2022-09-23T19:31:41.835Z,8.73
2022-09-23T19:34:15.743Z,8.69
2022-09-23T19:36:44.393Z,8.61
2022-09-23T19:39:22.410Z,8.61
2022-09-23T19:41:49.974Z,8.57
2022-09-23T19:44:16.750Z,8.54
2022-09-23T19:46:53.351Z,8.55
2022-09-23T19:49:23.901Z,8.54
2022-09-23T19:51:51.323Z,8.55
2022-09-23T19:54:21.024Z,8.48
2022-09-23T19:56:50.980Z,8.42
2022-09-23T19:59:19.172Z,8.31
2022-09-23T20:01:47.505Z,8.25
2022-09-23T20:04:15.594Z,8.08
2022-09-23T20:06:42.219Z,8.04
2022-09-23T20:09:08.778Z,8.00
2022-09-23T20:11:35.391Z,7.97
2022-09-23T20:14:04.748Z,7.96
2022-09-23T20:16:36.853Z,7.91
2022-09-23T20:19:05.099Z,7.91
2022-09-23T20:21:33.501Z,7.88
2022-09-23T20:24:00.263Z,7.86
2022-09-23T20:26:45.380Z,7.86
2022-09-23T20:29:11.953Z,7.78
2022-09-23T20:31:40.335Z,7.83
2022-09-23T20:34:08.542Z,7.81
2022-09-23T20:36:35.975Z,7.77
2022-09-23T20:39:05.891Z,7.77
2022-09-23T20:41:37.520Z,7.70
2022-09-23T20:44:10.446Z,7.66
2022-09-23T20:46:37.273Z,7.64
2022-09-23T20:49:04.481Z,7.61
2022-09-23T20:51:33.401Z,7.58
2022-09-23T20:54:00.453Z,7.52
2022-09-23T20:56:27.584Z,7.41
2022-09-23T20:58:54.133Z,7.33
2022-09-23T21:01:21.919Z,7.32
2022-09-23T21:03:50.287Z,7.24
2022-09-23T21:06:18.995Z,7.10
2022-09-23T21:08:46.305Z,7.03
2022-09-23T21:11:15.210Z,7.04
2022-09-23T21:13:51.707Z,7.00
2022-09-23T21:16:22.099Z,6.85
2022-09-23T21:18:50.437Z,6.84
2022-09-23T21:21:19.470Z,6.78
2022-09-23T21:23:47.557Z,6.72
2022-09-23T21:26:17.792Z,6.57
2022-09-23T21:28:46.625Z,6.46
2022-09-23T21:31:23.826Z,6.43
2022-09-23T21:33:59.087Z,6.38
2022-09-23T21:36:27.391Z,6.28
2022-09-23T21:38:55.501Z,6.22
2022-09-23T21:41:22.158Z,6.24
2022-09-23T21:43:49.689Z,6.21
2022-09-23T21:46:20.228Z,6.18
2022-09-23T21:48:51.891Z,6.10
2022-09-23T21:51:23.192Z,5.98
2022-09-23T21:53:50.008Z,5.99
2022-09-23T21:56:20.954Z,5.81
2022-09-23T21:58:47.848Z,5.74
2022-09-23T22:01:20.064Z,5.71
2022-09-23T22:03:55.178Z,5.72
2022-09-23T22:06:24.425Z,5.72
2022-09-23T22:08:59.055Z,5.66
2022-09-23T22:11:44.920Z,5.67
2022-09-23T22:14:12.571Z,5.64
2022-09-23T22:16:40.170Z,5.56
2022-09-23T22:19:08.136Z,5.55
2022-09-23T22:21:39.545Z,5.48
2022-09-23T22:24:08.617Z,5.46
2022-09-23T22:26:45.475Z,5.44
2022-09-23T22:29:32.674Z,5.42
2022-09-23T22:32:18.588Z,5.44
2022-09-23T22:34:50.459Z,5.41
2022-09-23T22:37:21.343Z,5.40
2022-09-23T22:39:47.854Z,5.41
2022-09-23T22:42:14.422Z,5.43
2022-09-23T22:44:41.138Z,5.40
2022-09-23T22:47:09.197Z,5.41
2022-09-23T22:49:37.012Z,5.34
2022-09-23T22:52:06.979Z,5.35
2022-09-23T22:54:34.333Z,5.35
2022-09-23T22:57:03.180Z,5.33
2022-09-23T22:59:29.835Z,5.32
2022-09-23T23:01:57.187Z,5.31
2022-09-23T23:04:23.824Z,5.33
2022-09-23T23:06:50.342Z,5.32
2022-09-23T23:09:18.374Z,5.15
2022-09-23T23:11:45.802Z,4.99
2022-09-23T23:14:13.744Z,4.98
2022-09-23T23:16:40.408Z,4.96
2022-09-23T23:19:13.469Z,4.96
2022-09-23T23:21:44.882Z,4.94
2022-09-23T23:24:20.304Z,4.92
2022-09-23T23:26:47.519Z,4.94
2022-09-23T23:29:16.323Z,4.94
2022-09-23T23:31:43.487Z,4.90
2022-09-23T23:34:19.044Z,4.89
2022-09-23T23:36:46.738Z,4.90
2022-09-23T23:39:14.255Z,4.91
2022-09-23T23:41:41.662Z,4.91
2022-09-23T23:44:08.694Z,4.90
2022-09-23T23:46:36.086Z,4.90
2022-09-23T23:49:03.278Z,4.89
2022-09-23T23:51:30.000Z,4.92
2022-09-23T23:53:58.655Z,4.91
2022-09-23T23:56:26.769Z,4.87
2022-09-23T23:58:57.876Z,4.82
